sensor_id;sensor_type;location;lat;lon;timestamp;P1;durP1;ratioP1;P2;durP2;ratioP2
51194;SDS011;37259;49.972;19.850;2022-10-31T00:00:59;23.3;;;30;;
51194;SDS011;37259;49.972;19.850;2022-10-31T00:01:59;23.3;;;30;;
51194;SDS011;37259;49.972;19.850;2022-10-31T00:02:59;23.3;;;30;;
51194;SDS011;37259;49.972;19.850;2022-10-31T00:03:59;20.1;;;26.9;;
51194;SDS011;37259;49.972;19.850;2022-10-31T00:04:59;20.1;;;26.9;;
51194;SDS011;37259;49.972;19.850;2022-10-31T00:05:59;20.1;;;26.9;;
51194;SDS011;37259;49.972;19.850;2022-10-31T00:06:59;20.1;;;26.9;;
51194;SDS011;37259;49.972;19.850;2022-10-31T00:07:59;20.1;;;26.9;;
51194;SDS011;37259;49.972;19.850;2022-10-31T00:09:00;20.1;;;26.9;;
51194;SDS011;37259;49.972;19.850;2022-10-31T00:09:59;20.1;;;26.9;;
51194;SDS011;37259;49.972;19.850;2022-10-31T00:10:59;20.1;;;26.9;;
51194;SDS011;37259;49.972;19.850;2022-10-31T00:11:59;20.1;;;26.9;;
51194;SDS011;37259;49.972;19.850;2022-10-31T00:12:59;20.1;;;26.9;;
51194;SDS011;37259;49.972;19.850;2022-10-31T00:13:59;20.1;;;26.9;;
51194;SDS011;37259;49.972;19.850;2022-10-31T00:14:59;20.1;;;26.9;;
51194;SDS011;37259;49.972;19.850;2022-10-31T00:15:59;20.1;;;26.9;;
51194;SDS011;37259;49.972;19.850;2022-10-31T00:16:59;20.1;;;26.9;;
51194;SDS011;37259;49.972;19.850;2022-10-31T00:17:59;20.1;;;26.9;;
51194;SDS011;37259;49.972;19.850;2022-10-31T00:19:00;20.1;;;26.9;;
51194;SDS011;37259;49.972;19.850;2022-10-31T00:19:59;20.1;;;26.9;;
51194;SDS011;37259;49.972;19.850;2022-10-31T00:20:59;20.1;;;26.9;;
51194;SDS011;37259;49.972;19.850;2022-10-31T00:21:59;20.1;;;26.9;;
51194;SDS011;37259;49.972;19.850;2022-10-31T00:23:00;20.1;;;26.9;;
51194;SDS011;37259;49.972;19.850;2022-10-31T00:23:59;20.1;;;26.9;;
51194;SDS011;37259;49.972;19.850;2022-10-31T00:24:59;20.1;;;26.9;;
51194;SDS011;37259;49.972;19.850;2022-10-31T00:25:59;20.1;;;26.9;;
51194;SDS011;37259;49.972;19.850;2022-10-31T00:26:59;20.1;;;26.9;;
51194;SDS011;37259;49.972;19.850;2022-10-31T00:27:59;20.1;;;26.9;;
51194;SDS011;37259;49.972;19.850;2022-10-31T00:28:59;20.1;;;26.9;;
51194;SDS011;37259;49.972;19.850;2022-10-31T00:29:59;20.1;;;26.9;;
51194;SDS011;37259;49.972;19.850;2022-10-31T00:30:59;20.1;;;26.9;;
51194;SDS011;37259;49.972;19.850;2022-10-31T00:31:59;20.1;;;26.9;;
51194;SDS011;37259;49.972;19.850;2022-10-31T00:32:59;20.1;;;26.9;;
51194;SDS011;37259;49.972;19.850;2022-10-31T00:33:59;18.7;;;24.2;;
51194;SDS011;37259;49.972;19.850;2022-10-31T00:34:59;18.7;;;24.2;;
51194;SDS011;37259;49.972;19.850;2022-10-31T00:35:59;18.7;;;24.2;;
51194;SDS011;37259;49.972;19.850;2022-10-31T00:36:59;18.7;;;24.2;;
51194;SDS011;37259;49.972;19.850;2022-10-31T00:37:59;18.7;;;24.2;;
51194;SDS011;37259;49.972;19.850;2022-10-31T00:38:59;18.7;;;24.2;;
51194;SDS011;37259;49.972;19.850;2022-10-31T00:39:59;18.7;;;24.2;;
51194;SDS011;37259;49.972;19.850;2022-10-31T00:40:59;18.7;;;24.2;;
51194;SDS011;37259;49.972;19.850;2022-10-31T00:41:59;18.7;;;24.2;;
51194;SDS011;37259;49.972;19.850;2022-10-31T00:42:59;18.7;;;24.2;;
51194;SDS011;37259;49.972;19.850;2022-10-31T00:43:59;18.7;;;24.2;;
51194;SDS011;37259;49.972;19.850;2022-10-31T00:44:59;18.7;;;24.2;;
51194;SDS011;37259;49.972;19.850;2022-10-31T00:45:59;18.7;;;24.2;;
51194;SDS011;37259;49.972;19.850;2022-10-31T00:46:59;18.7;;;24.2;;
51194;SDS011;37259;49.972;19.850;2022-10-31T00:47:59;18.7;;;24.2;;
51194;SDS011;37259;49.972;19.850;2022-10-31T00:48:59;18.7;;;24.2;;
51194;SDS011;37259;49.972;19.850;2022-10-31T00:49:59;18.7;;;24.2;;
51194;SDS011;37259;49.972;19.850;2022-10-31T00:50:59;18.7;;;24.2;;
51194;SDS011;37259;49.972;19.850;2022-10-31T00:51:59;18.7;;;24.2;;
51194;SDS011;37259;49.972;19.850;2022-10-31T00:52:59;18.7;;;24.2;;
51194;SDS011;37259;49.972;19.850;2022-10-31T00:53:59;18.7;;;24.2;;
51194;SDS011;37259;49.972;19.850;2022-10-31T00:54:59;18.7;;;24.2;;
51194;SDS011;37259;49.972;19.850;2022-10-31T00:55:59;18.7;;;24.2;;
51194;SDS011;37259;49.972;19.850;2022-10-31T00:56:59;18.7;;;24.2;;
51194;SDS011;37259;49.972;19.850;2022-10-31T00:57:59;18.7;;;24.2;;
51194;SDS011;37259;49.972;19.850;2022-10-31T00:58:59;18.7;;;24.2;;
51194;SDS011;37259;49.972;19.850;2022-10-31T01:02:11;18.7;;;24.2;;
51194;SDS011;37259;49.972;19.850;2022-10-31T01:02:59;19.5;;;24.5;;
51194;SDS011;37259;49.972;19.850;2022-10-31T01:03:59;19.5;;;24.5;;
51194;SDS011;37259;49.972;19.850;2022-10-31T01:04:59;19.5;;;24.5;;
51194;SDS011;37259;49.972;19.850;2022-10-31T01:06:01;19.5;;;24.5;;
51194;SDS011;37259;49.972;19.850;2022-10-31T01:06:59;19.5;;;24.5;;
51194;SDS011;37259;49.972;19.850;2022-10-31T01:07:59;19.5;;;24.5;;
51194;SDS011;37259;49.972;19.850;2022-10-31T01:08:59;19.5;;;24.5;;
51194;SDS011;37259;49.972;19.850;2022-10-31T01:09:59;19.5;;;24.5;;
51194;SDS011;37259;49.972;19.850;2022-10-31T01:11:00;19.5;;;24.5;;
51194;SDS011;37259;49.972;19.850;2022-10-31T01:11:59;19.5;;;24.5;;
51194;SDS011;37259;49.972;19.850;2022-10-31T01:12:59;19.5;;;24.5;;
51194;SDS011;37259;49.972;19.850;2022-10-31T01:13:59;19.5;;;24.5;;
51194;SDS011;37259;49.972;19.850;2022-10-31T01:14:59;19.5;;;24.5;;
51194;SDS011;37259;49.972;19.850;2022-10-31T01:16:00;19.5;;;24.5;;
51194;SDS011;37259;49.972;19.850;2022-10-31T01:16:59;19.5;;;24.5;;
51194;SDS011;37259;49.972;19.850;2022-10-31T01:17:59;19.5;;;24.5;;
51194;SDS011;37259;49.972;19.850;2022-10-31T01:18:59;19.5;;;24.5;;
51194;SDS011;37259;49.972;19.850;2022-10-31T01:19:59;19.5;;;24.5;;
51194;SDS011;37259;49.972;19.850;2022-10-31T01:21:00;19.5;;;24.5;;
51194;SDS011;37259;49.972;19.850;2022-10-31T01:21:59;19.5;;;24.5;;
51194;SDS011;37259;49.972;19.850;2022-10-31T01:22:59;19.5;;;24.5;;
51194;SDS011;37259;49.972;19.850;2022-10-31T01:23:59;19.5;;;24.5;;
51194;SDS011;37259;49.972;19.850;2022-10-31T01:24:59;19.5;;;24.5;;
51194;SDS011;37259;49.972;19.850;2022-10-31T01:26:00;19.5;;;24.5;;
51194;SDS011;37259;49.972;19.850;2022-10-31T01:26:59;19.5;;;24.5;;
51194;SDS011;37259;49.972;19.850;2022-10-31T01:27:59;19.5;;;24.5;;
51194;SDS011;37259;49.972;19.850;2022-10-31T01:29:00;19.5;;;24.5;;
51194;SDS011;37259;49.972;19.850;2022-10-31T01:29:59;19.5;;;24.5;;
51194;SDS011;37259;49.972;19.850;2022-10-31T01:31:00;19.5;;;24.5;;
51194;SDS011;37259;49.972;19.850;2022-10-31T01:31:59;19.5;;;24.5;;
51194;SDS011;37259;49.972;19.850;2022-10-31T01:32:59;19.5;;;25.7;;
51194;SDS011;37259;49.972;19.850;2022-10-31T01:33:59;19.5;;;25.7;;
51194;SDS011;37259;49.972;19.850;2022-10-31T01:34:59;19.5;;;25.7;;
51194;SDS011;37259;49.972;19.850;2022-10-31T01:35:59;19.5;;;25.7;;
51194;SDS011;37259;49.972;19.850;2022-10-31T01:36:59;19.5;;;25.7;;
51194;SDS011;37259;49.972;19.850;2022-10-31T01:37:59;19.5;;;25.7;;
51194;SDS011;37259;49.972;19.850;2022-10-31T01:39:00;19.5;;;25.7;;
51194;SDS011;37259;49.972;19.850;2022-10-31T01:39:59;19.5;;;25.7;;
51194;SDS011;37259;49.972;19.850;2022-10-31T01:40:59;19.5;;;25.7;;
51194;SDS011;37259;49.972;19.850;2022-10-31T01:41:59;19.5;;;25.7;;
51194;SDS011;37259;49.972;19.850;2022-10-31T01:42:59;19.5;;;25.7;;
51194;SDS011;37259;49.972;19.850;2022-10-31T01:44:00;19.5;;;25.7;;
51194;SDS011;37259;49.972;19.850;2022-10-31T01:45:00;19.5;;;25.7;;
51194;SDS011;37259;49.972;19.850;2022-10-31T01:45:59;19.5;;;25.7;;
51194;SDS011;37259;49.972;19.850;2022-10-31T01:47:01;19.5;;;25.7;;
51194;SDS011;37259;49.972;19.850;2022-10-31T01:47:59;19.5;;;25.7;;
51194;SDS011;37259;49.972;19.850;2022-10-31T01:49:00;19.5;;;25.7;;
51194;SDS011;37259;49.972;19.850;2022-10-31T01:50:00;19.5;;;25.7;;
51194;SDS011;37259;49.972;19.850;2022-10-31T01:50:59;19.5;;;25.7;;
51194;SDS011;37259;49.972;19.850;2022-10-31T01:52:00;19.5;;;25.7;;
51194;SDS011;37259;49.972;19.850;2022-10-31T01:52:59;19.5;;;25.7;;
51194;SDS011;37259;49.972;19.850;2022-10-31T01:54:00;19.5;;;25.7;;
51194;SDS011;37259;49.972;19.850;2022-10-31T01:55:00;19.5;;;25.7;;
51194;SDS011;37259;49.972;19.850;2022-10-31T01:55:59;19.5;;;25.7;;
51194;SDS011;37259;49.972;19.850;2022-10-31T01:56:59;19.5;;;25.7;;
51194;SDS011;37259;49.972;19.850;2022-10-31T01:58:02;19.5;;;25.7;;
51194;SDS011;37259;49.972;19.850;2022-10-31T01:58:59;19.5;;;25.7;;
51194;SDS011;37259;49.972;19.850;2022-10-31T02:00:00;19.5;;;25.7;;
51194;SDS011;37259;49.972;19.850;2022-10-31T02:00:59;19.5;;;25.7;;
51194;SDS011;37259;49.972;19.850;2022-10-31T02:01:59;19.5;;;25.7;;
51194;SDS011;37259;49.972;19.850;2022-10-31T02:02:59;20.3;;;29.6;;
51194;SDS011;37259;49.972;19.850;2022-10-31T02:03:59;20.3;;;29.6;;
51194;SDS011;37259;49.972;19.850;2022-10-31T02:05:00;20.3;;;29.6;;
51194;SDS011;37259;49.972;19.850;2022-10-31T02:05:59;20.3;;;29.6;;
51194;SDS011;37259;49.972;19.850;2022-10-31T02:07:00;20.3;;;29.6;;
51194;SDS011;37259;49.972;19.850;2022-10-31T02:08:01;20.3;;;29.6;;
51194;SDS011;37259;49.972;19.850;2022-10-31T02:08:59;20.3;;;29.6;;
51194;SDS011;37259;49.972;19.850;2022-10-31T02:09:59;20.3;;;29.6;;
51194;SDS011;37259;49.972;19.850;2022-10-31T02:11:00;20.3;;;29.6;;
51194;SDS011;37259;49.972;19.850;2022-10-31T02:11:59;20.3;;;29.6;;
51194;SDS011;37259;49.972;19.850;2022-10-31T02:13:01;20.3;;;29.6;;
51194;SDS011;37259;49.972;19.850;2022-10-31T02:14:00;20.3;;;29.6;;
51194;SDS011;37259;49.972;19.850;2022-10-31T02:15:00;20.3;;;29.6;;
51194;SDS011;37259;49.972;19.850;2022-10-31T02:15:59;20.3;;;29.6;;
51194;SDS011;37259;49.972;19.850;2022-10-31T02:16:59;20.3;;;29.6;;
51194;SDS011;37259;49.972;19.850;2022-10-31T02:17:59;20.3;;;29.6;;
51194;SDS011;37259;49.972;19.850;2022-10-31T02:18:59;20.3;;;29.6;;
51194;SDS011;37259;49.972;19.850;2022-10-31T02:20:01;20.3;;;29.6;;
51194;SDS011;37259;49.972;19.850;2022-10-31T02:21:02;20.3;;;29.6;;
51194;SDS011;37259;49.972;19.850;2022-10-31T02:22:01;20.3;;;29.6;;
51194;SDS011;37259;49.972;19.850;2022-10-31T02:23:08;20.3;;;29.6;;
51194;SDS011;37259;49.972;19.850;2022-10-31T02:24:16;20.3;;;29.6;;
51194;SDS011;37259;49.972;19.850;2022-10-31T02:25:02;20.3;;;29.6;;
51194;SDS011;37259;49.972;19.850;2022-10-31T02:26:07;20.3;;;29.6;;
51194;SDS011;37259;49.972;19.850;2022-10-31T02:27:03;20.3;;;29.6;;
51194;SDS011;37259;49.972;19.850;2022-10-31T02:28:03;20.3;;;29.6;;
51194;SDS011;37259;49.972;19.850;2022-10-31T02:29:05;20.3;;;29.6;;
51194;SDS011;37259;49.972;19.850;2022-10-31T02:30:03;20.3;;;29.6;;
51194;SDS011;37259;49.972;19.850;2022-10-31T02:31:03;20.3;;;29.6;;
51194;SDS011;37259;49.972;19.850;2022-10-31T02:32:00;20.3;;;29.6;;
51194;SDS011;37259;49.972;19.850;2022-10-31T02:33:02;21.7;;;30.9;;
51194;SDS011;37259;49.972;19.850;2022-10-31T02:34:01;21.7;;;30.9;;
51194;SDS011;37259;49.972;19.850;2022-10-31T02:35:03;21.7;;;30.9;;
51194;SDS011;37259;49.972;19.850;2022-10-31T02:36:02;21.7;;;30.9;;
51194;SDS011;37259;49.972;19.850;2022-10-31T02:37:01;21.7;;;30.9;;
51194;SDS011;37259;49.972;19.850;2022-10-31T02:38:02;21.7;;;30.9;;
51194;SDS011;37259;49.972;19.850;2022-10-31T02:39:01;21.7;;;30.9;;
51194;SDS011;37259;49.972;19.850;2022-10-31T02:40:02;21.7;;;30.9;;
51194;SDS011;37259;49.972;19.850;2022-10-31T02:41:01;21.7;;;30.9;;
51194;SDS011;37259;49.972;19.850;2022-10-31T02:42:01;21.7;;;30.9;;
51194;SDS011;37259;49.972;19.850;2022-10-31T02:43:02;21.7;;;30.9;;
51194;SDS011;37259;49.972;19.850;2022-10-31T02:44:02;21.7;;;30.9;;
51194;SDS011;37259;49.972;19.850;2022-10-31T02:45:00;21.7;;;30.9;;
51194;SDS011;37259;49.972;19.850;2022-10-31T02:46:01;21.7;;;30.9;;
51194;SDS011;37259;49.972;19.850;2022-10-31T02:47:00;21.7;;;30.9;;
51194;SDS011;37259;49.972;19.850;2022-10-31T02:48:01;21.7;;;30.9;;
51194;SDS011;37259;49.972;19.850;2022-10-31T02:49:00;21.7;;;30.9;;
51194;SDS011;37259;49.972;19.850;2022-10-31T02:50:00;21.7;;;30.9;;
51194;SDS011;37259;49.972;19.850;2022-10-31T02:51:00;21.7;;;30.9;;
51194;SDS011;37259;49.972;19.850;2022-10-31T02:51:59;21.7;;;30.9;;
51194;SDS011;37259;49.972;19.850;2022-10-31T02:53:00;21.7;;;30.9;;
51194;SDS011;37259;49.972;19.850;2022-10-31T02:53:59;21.7;;;30.9;;
51194;SDS011;37259;49.972;19.850;2022-10-31T02:55:08;21.7;;;30.9;;
51194;SDS011;37259;49.972;19.850;2022-10-31T02:56:00;21.7;;;30.9;;
51194;SDS011;37259;49.972;19.850;2022-10-31T02:57:00;21.7;;;30.9;;
51194;SDS011;37259;49.972;19.850;2022-10-31T02:58:00;21.7;;;30.9;;
51194;SDS011;37259;49.972;19.850;2022-10-31T02:59:00;21.7;;;30.9;;
51194;SDS011;37259;49.972;19.850;2022-10-31T03:00:00;21.7;;;30.9;;
51194;SDS011;37259;49.972;19.850;2022-10-31T03:01:03;21.7;;;30.9;;
51194;SDS011;37259;49.972;19.850;2022-10-31T03:02:06;21.7;;;30.9;;
51194;SDS011;37259;49.972;19.850;2022-10-31T03:03:00;20.7;;;28.1;;
51194;SDS011;37259;49.972;19.850;2022-10-31T03:04:02;20.7;;;28.1;;
51194;SDS011;37259;49.972;19.850;2022-10-31T03:05:03;20.7;;;28.1;;
51194;SDS011;37259;49.972;19.850;2022-10-31T03:06:00;20.7;;;28.1;;
51194;SDS011;37259;49.972;19.850;2022-10-31T03:07:00;20.7;;;28.1;;
51194;SDS011;37259;49.972;19.850;2022-10-31T03:08:00;20.7;;;28.1;;
51194;SDS011;37259;49.972;19.850;2022-10-31T03:09:01;20.7;;;28.1;;
51194;SDS011;37259;49.972;19.850;2022-10-31T03:10:02;20.7;;;28.1;;
51194;SDS011;37259;49.972;19.850;2022-10-31T03:11:00;20.7;;;28.1;;
51194;SDS011;37259;49.972;19.850;2022-10-31T03:12:03;20.7;;;28.1;;
51194;SDS011;37259;49.972;19.850;2022-10-31T03:13:01;20.7;;;28.1;;
51194;SDS011;37259;49.972;19.850;2022-10-31T03:14:00;20.7;;;28.1;;
51194;SDS011;37259;49.972;19.850;2022-10-31T03:15:01;20.7;;;28.1;;
51194;SDS011;37259;49.972;19.850;2022-10-31T03:16:03;20.7;;;28.1;;
51194;SDS011;37259;49.972;19.850;2022-10-31T03:16:59;20.7;;;28.1;;
51194;SDS011;37259;49.972;19.850;2022-10-31T03:18:00;20.7;;;28.1;;
51194;SDS011;37259;49.972;19.850;2022-10-31T03:19:00;20.7;;;28.1;;
51194;SDS011;37259;49.972;19.850;2022-10-31T03:20:00;20.7;;;28.1;;
51194;SDS011;37259;49.972;19.850;2022-10-31T03:21:01;20.7;;;28.1;;
51194;SDS011;37259;49.972;19.850;2022-10-31T03:22:00;20.7;;;28.1;;
51194;SDS011;37259;49.972;19.850;2022-10-31T03:22:59;20.7;;;28.1;;
51194;SDS011;37259;49.972;19.850;2022-10-31T03:23:59;20.7;;;28.1;;
51194;SDS011;37259;49.972;19.850;2022-10-31T03:25:00;20.7;;;28.1;;
51194;SDS011;37259;49.972;19.850;2022-10-31T03:25:59;20.7;;;28.1;;
51194;SDS011;37259;49.972;19.850;2022-10-31T03:26:59;20.7;;;28.1;;
51194;SDS011;37259;49.972;19.850;2022-10-31T03:27:59;20.7;;;28.1;;
51194;SDS011;37259;49.972;19.850;2022-10-31T03:29:00;20.7;;;28.1;;
51194;SDS011;37259;49.972;19.850;2022-10-31T03:30:00;20.7;;;28.1;;
51194;SDS011;37259;49.972;19.850;2022-10-31T03:30:59;20.7;;;28.1;;
51194;SDS011;37259;49.972;19.850;2022-10-31T03:32:00;20.7;;;28.1;;
51194;SDS011;37259;49.972;19.850;2022-10-31T03:32:59;23;;;27.7;;
51194;SDS011;37259;49.972;19.850;2022-10-31T03:34:00;23;;;27.7;;
51194;SDS011;37259;49.972;19.850;2022-10-31T03:35:00;23;;;27.7;;
51194;SDS011;37259;49.972;19.850;2022-10-31T03:35:59;23;;;27.7;;
51194;SDS011;37259;49.972;19.850;2022-10-31T03:37:00;23;;;27.7;;
51194;SDS011;37259;49.972;19.850;2022-10-31T03:37:59;23;;;27.7;;
51194;SDS011;37259;49.972;19.850;2022-10-31T03:38:59;23;;;27.7;;
51194;SDS011;37259;49.972;19.850;2022-10-31T03:40:00;23;;;27.7;;
51194;SDS011;37259;49.972;19.850;2022-10-31T03:40:59;23;;;27.7;;
51194;SDS011;37259;49.972;19.850;2022-10-31T03:42:00;23;;;27.7;;
51194;SDS011;37259;49.972;19.850;2022-10-31T03:43:00;23;;;27.7;;
51194;SDS011;37259;49.972;19.850;2022-10-31T03:44:00;23;;;27.7;;
51194;SDS011;37259;49.972;19.850;2022-10-31T03:45:00;23;;;27.7;;
51194;SDS011;37259;49.972;19.850;2022-10-31T03:45:59;23;;;27.7;;
51194;SDS011;37259;49.972;19.850;2022-10-31T03:46:59;23;;;27.7;;
51194;SDS011;37259;49.972;19.850;2022-10-31T03:47:59;23;;;27.7;;
51194;SDS011;37259;49.972;19.850;2022-10-31T03:48:59;23;;;27.7;;
51194;SDS011;37259;49.972;19.850;2022-10-31T03:49:59;23;;;27.7;;
51194;SDS011;37259;49.972;19.850;2022-10-31T03:51:00;23;;;27.7;;
51194;SDS011;37259;49.972;19.850;2022-10-31T03:52:01;23;;;27.7;;
51194;SDS011;37259;49.972;19.850;2022-10-31T03:53:00;23;;;27.7;;
51194;SDS011;37259;49.972;19.850;2022-10-31T03:54:01;23;;;27.7;;
51194;SDS011;37259;49.972;19.850;2022-10-31T03:55:01;23;;;27.7;;
51194;SDS011;37259;49.972;19.850;2022-10-31T03:56:00;23;;;27.7;;
51194;SDS011;37259;49.972;19.850;2022-10-31T03:57:00;23;;;27.7;;
51194;SDS011;37259;49.972;19.850;2022-10-31T03:58:00;23;;;27.7;;
51194;SDS011;37259;49.972;19.850;2022-10-31T03:59:00;23;;;27.7;;
51194;SDS011;37259;49.972;19.850;2022-10-31T04:00:00;23;;;27.7;;
51194;SDS011;37259;49.972;19.850;2022-10-31T04:01:00;23;;;27.7;;
51194;SDS011;37259;49.972;19.850;2022-10-31T04:02:00;23;;;27.7;;
51194;SDS011;37259;49.972;19.850;2022-10-31T04:03:00;21.5;;;27.9;;
51194;SDS011;37259;49.972;19.850;2022-10-31T04:03:59;21.5;;;27.9;;
51194;SDS011;37259;49.972;19.850;2022-10-31T04:04:59;21.5;;;27.9;;
51194;SDS011;37259;49.972;19.850;2022-10-31T04:06:59;21.5;;;27.9;;
51194;SDS011;37259;49.972;19.850;2022-10-31T04:08:00;21.5;;;27.9;;
51194;SDS011;37259;49.972;19.850;2022-10-31T04:09:00;21.5;;;27.9;;
51194;SDS011;37259;49.972;19.850;2022-10-31T04:10:00;21.5;;;27.9;;
51194;SDS011;37259;49.972;19.850;2022-10-31T04:10:59;21.5;;;27.9;;
51194;SDS011;37259;49.972;19.850;2022-10-31T04:11:59;21.5;;;27.9;;
51194;SDS011;37259;49.972;19.850;2022-10-31T04:13:01;21.5;;;27.9;;
51194;SDS011;37259;49.972;19.850;2022-10-31T04:14:00;21.5;;;27.9;;
51194;SDS011;37259;49.972;19.850;2022-10-31T04:14:59;21.5;;;27.9;;
51194;SDS011;37259;49.972;19.850;2022-10-31T04:15:59;21.5;;;27.9;;
51194;SDS011;37259;49.972;19.850;2022-10-31T04:17:00;21.5;;;27.9;;
51194;SDS011;37259;49.972;19.850;2022-10-31T04:17:59;21.5;;;27.9;;
51194;SDS011;37259;49.972;19.850;2022-10-31T04:18:59;21.5;;;27.9;;
51194;SDS011;37259;49.972;19.850;2022-10-31T04:20:00;21.5;;;27.9;;
51194;SDS011;37259;49.972;19.850;2022-10-31T04:21:00;21.5;;;27.9;;
51194;SDS011;37259;49.972;19.850;2022-10-31T04:22:00;21.5;;;27.9;;
51194;SDS011;37259;49.972;19.850;2022-10-31T04:22:59;21.5;;;27.9;;
51194;SDS011;37259;49.972;19.850;2022-10-31T04:23:59;21.5;;;27.9;;
51194;SDS011;37259;49.972;19.850;2022-10-31T04:24:59;21.5;;;27.9;;
51194;SDS011;37259;49.972;19.850;2022-10-31T04:26:00;21.5;;;27.9;;
51194;SDS011;37259;49.972;19.850;2022-10-31T04:26:59;21.5;;;27.9;;
51194;SDS011;37259;49.972;19.850;2022-10-31T04:27:59;21.5;;;27.9;;
51194;SDS011;37259;49.972;19.850;2022-10-31T04:28:59;21.5;;;27.9;;
51194;SDS011;37259;49.972;19.850;2022-10-31T04:29:59;21.5;;;27.9;;
51194;SDS011;37259;49.972;19.850;2022-10-31T04:30:59;21.5;;;27.9;;
51194;SDS011;37259;49.972;19.850;2022-10-31T04:31:59;21.5;;;27.9;;
51194;SDS011;37259;49.972;19.850;2022-10-31T04:32:59;18;;;21.5;;
51194;SDS011;37259;49.972;19.850;2022-10-31T04:33:59;18;;;21.5;;
51194;SDS011;37259;49.972;19.850;2022-10-31T04:34:59;18;;;21.5;;
51194;SDS011;37259;49.972;19.850;2022-10-31T04:35:59;18;;;21.5;;
51194;SDS011;37259;49.972;19.850;2022-10-31T04:36:59;18;;;21.5;;
51194;SDS011;37259;49.972;19.850;2022-10-31T04:37:59;18;;;21.5;;
51194;SDS011;37259;49.972;19.850;2022-10-31T04:38:59;18;;;21.5;;
51194;SDS011;37259;49.972;19.850;2022-10-31T04:39:59;18;;;21.5;;
51194;SDS011;37259;49.972;19.850;2022-10-31T04:40:59;18;;;21.5;;
51194;SDS011;37259;49.972;19.850;2022-10-31T04:41:59;18;;;21.5;;
51194;SDS011;37259;49.972;19.850;2022-10-31T04:42:59;18;;;21.5;;
51194;SDS011;37259;49.972;19.850;2022-10-31T04:43:59;18;;;21.5;;
51194;SDS011;37259;49.972;19.850;2022-10-31T04:44:59;18;;;21.5;;
51194;SDS011;37259;49.972;19.850;2022-10-31T04:46:00;18;;;21.5;;
51194;SDS011;37259;49.972;19.850;2022-10-31T04:47:00;18;;;21.5;;
51194;SDS011;37259;49.972;19.850;2022-10-31T04:47:59;18;;;21.5;;
51194;SDS011;37259;49.972;19.850;2022-10-31T04:48:59;18;;;21.5;;
51194;SDS011;37259;49.972;19.850;2022-10-31T04:50:00;18;;;21.5;;
51194;SDS011;37259;49.972;19.850;2022-10-31T04:51:00;18;;;21.5;;
51194;SDS011;37259;49.972;19.850;2022-10-31T04:51:59;18;;;21.5;;
51194;SDS011;37259;49.972;19.850;2022-10-31T04:52:59;18;;;21.5;;
51194;SDS011;37259;49.972;19.850;2022-10-31T04:53:59;18;;;21.5;;
51194;SDS011;37259;49.972;19.850;2022-10-31T04:54:59;18;;;21.5;;
51194;SDS011;37259;49.972;19.850;2022-10-31T04:55:59;18;;;21.5;;
51194;SDS011;37259;49.972;19.850;2022-10-31T04:57:00;18;;;21.5;;
51194;SDS011;37259;49.972;19.850;2022-10-31T04:57:59;18;;;21.5;;
51194;SDS011;37259;49.972;19.850;2022-10-31T04:58:59;18;;;21.5;;
51194;SDS011;37259;49.972;19.850;2022-10-31T04:59:59;18;;;21.5;;
51194;SDS011;37259;49.972;19.850;2022-10-31T05:00:59;18;;;21.5;;
51194;SDS011;37259;49.972;19.850;2022-10-31T05:01:59;18;;;21.5;;
51194;SDS011;37259;49.972;19.850;2022-10-31T05:02:59;16.8;;;22;;
51194;SDS011;37259;49.972;19.850;2022-10-31T05:03:59;16.8;;;22;;
51194;SDS011;37259;49.972;19.850;2022-10-31T05:04:59;16.8;;;22;;
51194;SDS011;37259;49.972;19.850;2022-10-31T05:05:59;16.8;;;22;;
51194;SDS011;37259;49.972;19.850;2022-10-31T05:06:59;16.8;;;22;;
51194;SDS011;37259;49.972;19.850;2022-10-31T05:08:00;16.8;;;22;;
51194;SDS011;37259;49.972;19.850;2022-10-31T05:08:59;16.8;;;22;;
51194;SDS011;37259;49.972;19.850;2022-10-31T05:09:59;16.8;;;22;;
51194;SDS011;37259;49.972;19.850;2022-10-31T05:11:00;16.8;;;22;;
51194;SDS011;37259;49.972;19.850;2022-10-31T05:12:00;16.8;;;22;;
51194;SDS011;37259;49.972;19.850;2022-10-31T05:13:01;16.8;;;22;;
51194;SDS011;37259;49.972;19.850;2022-10-31T05:13:59;16.8;;;22;;
51194;SDS011;37259;49.972;19.850;2022-10-31T05:14:59;16.8;;;22;;
51194;SDS011;37259;49.972;19.850;2022-10-31T05:15:59;16.8;;;22;;
51194;SDS011;37259;49.972;19.850;2022-10-31T05:16:59;16.8;;;22;;
51194;SDS011;37259;49.972;19.850;2022-10-31T05:17:59;16.8;;;22;;
51194;SDS011;37259;49.972;19.850;2022-10-31T05:18:59;16.8;;;22;;
51194;SDS011;37259;49.972;19.850;2022-10-31T05:20:00;16.8;;;22;;
51194;SDS011;37259;49.972;19.850;2022-10-31T05:20:59;16.8;;;22;;
51194;SDS011;37259;49.972;19.850;2022-10-31T05:21:59;16.8;;;22;;
51194;SDS011;37259;49.972;19.850;2022-10-31T05:23:00;16.8;;;22;;
51194;SDS011;37259;49.972;19.850;2022-10-31T05:23:59;16.8;;;22;;
51194;SDS011;37259;49.972;19.850;2022-10-31T05:24:59;16.8;;;22;;
51194;SDS011;37259;49.972;19.850;2022-10-31T05:25:59;16.8;;;22;;
51194;SDS011;37259;49.972;19.850;2022-10-31T05:26:59;16.8;;;22;;
51194;SDS011;37259;49.972;19.850;2022-10-31T05:27:59;16.8;;;22;;
51194;SDS011;37259;49.972;19.850;2022-10-31T05:29:00;16.8;;;22;;
51194;SDS011;37259;49.972;19.850;2022-10-31T05:29:59;16.8;;;22;;
51194;SDS011;37259;49.972;19.850;2022-10-31T05:30:59;16.8;;;22;;
51194;SDS011;37259;49.972;19.850;2022-10-31T05:31:59;16.8;;;22;;
51194;SDS011;37259;49.972;19.850;2022-10-31T05:33:00;15.7;;;22.3;;
51194;SDS011;37259;49.972;19.850;2022-10-31T05:33:59;15.7;;;22.3;;
51194;SDS011;37259;49.972;19.850;2022-10-31T05:34:59;15.7;;;22.3;;
51194;SDS011;37259;49.972;19.850;2022-10-31T05:35:59;15.7;;;22.3;;
51194;SDS011;37259;49.972;19.850;2022-10-31T05:36:59;15.7;;;22.3;;
51194;SDS011;37259;49.972;19.850;2022-10-31T05:37:59;15.7;;;22.3;;
51194;SDS011;37259;49.972;19.850;2022-10-31T05:38:59;15.7;;;22.3;;
51194;SDS011;37259;49.972;19.850;2022-10-31T05:40:00;15.7;;;22.3;;
51194;SDS011;37259;49.972;19.850;2022-10-31T05:40:59;15.7;;;22.3;;
51194;SDS011;37259;49.972;19.850;2022-10-31T05:42:00;15.7;;;22.3;;
51194;SDS011;37259;49.972;19.850;2022-10-31T05:42:59;15.7;;;22.3;;
51194;SDS011;37259;49.972;19.850;2022-10-31T05:43:59;15.7;;;22.3;;
51194;SDS011;37259;49.972;19.850;2022-10-31T05:44:59;15.7;;;22.3;;
51194;SDS011;37259;49.972;19.850;2022-10-31T05:45:59;15.7;;;22.3;;
51194;SDS011;37259;49.972;19.850;2022-10-31T05:47:00;15.7;;;22.3;;
51194;SDS011;37259;49.972;19.850;2022-10-31T05:48:00;15.7;;;22.3;;
51194;SDS011;37259;49.972;19.850;2022-10-31T05:48:59;15.7;;;22.3;;
51194;SDS011;37259;49.972;19.850;2022-10-31T05:49:59;15.7;;;22.3;;
51194;SDS011;37259;49.972;19.850;2022-10-31T05:50:59;15.7;;;22.3;;
51194;SDS011;37259;49.972;19.850;2022-10-31T05:51:59;15.7;;;22.3;;
51194;SDS011;37259;49.972;19.850;2022-10-31T05:53:00;15.7;;;22.3;;
51194;SDS011;37259;49.972;19.850;2022-10-31T05:54:00;15.7;;;22.3;;
51194;SDS011;37259;49.972;19.850;2022-10-31T05:54:59;15.7;;;22.3;;
51194;SDS011;37259;49.972;19.850;2022-10-31T05:55:59;15.7;;;22.3;;
51194;SDS011;37259;49.972;19.850;2022-10-31T05:56:59;15.7;;;22.3;;
51194;SDS011;37259;49.972;19.850;2022-10-31T05:58:00;15.7;;;22.3;;
51194;SDS011;37259;49.972;19.850;2022-10-31T05:58:59;15.7;;;22.3;;
51194;SDS011;37259;49.972;19.850;2022-10-31T06:00:00;15.7;;;22.3;;
51194;SDS011;37259;49.972;19.850;2022-10-31T06:00:59;15.7;;;22.3;;
51194;SDS011;37259;49.972;19.850;2022-10-31T06:01:59;15.7;;;22.3;;